KBGM/BGM METAR and TAF weather

Enter ICAO airport designator
Station Type Date Time Source
KBGM METAR 2022/01/29 01:53 UTC NOAA

KBGM 290153Z 36012KT 10SM CLR M12/M16 A3003 RMK AO2 SLP199 T11221156


Station Type Date Time Source
KBGM Decoded METAR 2022/01/29 01:53 UTC NOAA

BINGHAMTON REGIONAL AIRPORT, NY, United States (KBGM) 42-12N 75-59W 492M
Jan 28, 2022 - 08:53 PM EST / 2022.01.29 0153 UTC
Wind: from the N (360 degrees) at 14 MPH (12 KT):0
Visibility: 10 mile(s):0
Sky conditions: clear
Temperature: 10.0 F (-12.2 C)
Windchill: -5 F (-21 C):2
Dew Point: 3.9 F (-15.6 C)
Relative Humidity: 75%
Pressure (altimeter): 30.03 in. Hg (1016 hPa)
ob: KBGM 290153Z 36012KT 10SM CLR M12/M16 A3003 RMK AO2 SLP199 T11221156
cycle: 2

Station Type Date Time Source
KBGM TAF 2022/01/28 19:51 UTC NOAA

TAF
AMD KBGM 281848Z 2819/2918 31008G15KT 2SM -SN BR BKN015 OVC025
FM282100 35007KT P6SM OVC022
FM290900 36010G19KT P6SM BKN035
FM291400 34015G23KT P6SM OVC100

Example: see airport list